Cielo Di Capri — 9HA4243 — position and weather

sailwx.info

Track history (hours):
 
Tides and Currents Weather Stations Pressure Air Temp Water Temp Dewpoint Dewpoint Depression Visibility Wind Speed Wind Dir Waves Ship Positions

Cielo Di Capri

Last reported at 2018-Apr-24 12:00 UTC. Time now 2018-Apr-24 12:20 UTC.
Position N 53°38' W 000°10'.

Length 184 m; draft 11.9 m.

Type: Tanker. MMSI: 249435000.

Date/timePositionNaut miles runAvg speedWind from/ knotsBaromVisibWave heightAir tempDewpointWater temp
2018-Apr-24 12:00N 53°38' W 000°10'0 0.1
2018-Apr-24 11:30N 53°38' W 000°10'0 0.0
2018-Apr-24 08:45N 53°38' W 000°10'0 0.0
2018-Apr-24 08:30N 53°38' W 000°10'0 0.0
2018-Apr-24 08:00N 53°38' W 000°10'0 0.0
2018-Apr-24 06:42N 53°38' W 000°10'0 0.0
2018-Apr-23 20:48N 53°38' W 000°10'0 0.0
2018-Apr-23 19:42N 53°38' W 000°10'0 0.0
2018-Apr-23 19:27N 53°38' W 000°10'0 0.0
2018-Apr-23 19:00N 53°38' W 000°10'0 0.0
2018-Apr-23 18:30N 53°38' W 000°10'0 0.0
2018-Apr-23 17:48N 53°38' W 000°10'0 0.0
2018-Apr-23 17:30N 53°38' W 000°10'0 0.0
2018-Apr-23 17:00N 53°38' W 000°10'0 0.0
2018-Apr-23 16:27N 53°38' W 000°10'0 0.0
2018-Apr-23 16:00N 53°38' W 000°10'0 0.0
2018-Apr-23 15:27N 53°38' W 000°10'0 0.0
2018-Apr-23 15:00N 53°38' W 000°10'0 0.0
2018-Apr-23 14:30N 53°38' W 000°10'0 0.0
2018-Apr-23 14:00N 53°38' W 000°10'0 0.0
2018-Apr-23 13:30N 53°38' W 000°10'0 0.0
2018-Apr-23 08:51N 53°38' W 000°10'0 0.0
2018-Apr-23 07:30N 53°38' W 000°10'0 0.0
2018-Apr-23 07:00N 53°38' W 000°10'0 0.0
2018-Apr-23 06:27N 53°38' W 000°10'0 0.0
2018-Apr-23 06:00N 53°38' W 000°10'0 0.0
2018-Apr-23 05:21N 53°38' W 000°10'0 0.0
2018-Apr-23 03:39N 53°38' W 000°10'0 0.0
2018-Apr-23 03:27N 53°38' W 000°10'0 0.0
2018-Apr-22 23:27N 53°38' W 000°10'1 1.8
2018-Apr-22 23:00N 53°38' W 000°08'3 5.7
2018-Apr-22 22:30N 53°37' W 000°04'5 9.2
2018-Apr-22 22:00N 53°35' E 000°03'510.9
2018-Apr-22 21:30N 53°33' E 000°12'8 0.3
2018-Apr-21 21:52N 53°37' E 000°24'0 0.1
2018-Apr-21 21:19N 53°37' E 000°24'0 0.0
2018-Apr-21 20:58N 53°37' E 000°24'0 0.0
2018-Apr-21 20:28N 53°37' E 000°24'0 0.0
2018-Apr-21 19:58N 53°37' E 000°24'0 0.2
2018-Apr-21 19:30N 53°37' E 000°24'3 7.0
2018-Apr-21 19:00N 53°38' E 000°29'612.4
2018-Apr-21 18:30N 53°42' E 000°38'612.1
2018-Apr-21 18:00N 53°45' E 000°46'612.0
2018-Apr-21 17:30N 53°49' E 000°54'612.2
2018-Apr-21 17:00N 53°51' E 001°04'612.3
2018-Apr-21 16:30N 53°54' E 001°13'612.2
2018-Apr-21 16:01N 53°56' E 001°23'712.2
2018-Apr-21 15:29N 53°59' E 001°33'612.0
2018-Apr-21 15:00N 54°00' E 001°42'612.7
2018-Apr-21 14:30N 53°60' E 001°53'612.3
2018-Apr-21 14:00N 53°60' E 002°03'2510.6
2018-Apr-21 11:41N 53°38' E 002°25'210.9
2018-Apr-21 11:28N 53°37' E 002°28'510.8
2018-Apr-21 11:00N 53°33' E 002°34'2 1.3
2018-Apr-21 09:50N 53°32' E 002°36'0 0.0
2018-Apr-21 09:29N 53°32' E 002°36'0 0.0
2018-Apr-21 03:38N 53°32' E 002°36'0 0.0
2018-Apr-20 21:44N 53°32' E 002°36'0 0.0
2018-Apr-20 18:14N 53°32' E 002°36'0 0.0
2018-Apr-20 17:56N 53°32' E 002°36'0 0.0
2018-Apr-20 17:26N 53°32' E 002°36'0 0.0
2018-Apr-20 16:50N 53°32' E 002°36'0 0.0
2018-Apr-20 16:17N 53°32' E 002°36'0 0.1
2018-Apr-20 15:56N 53°32' E 002°36'0 0.0
2018-Apr-20 00:14N 53°32' E 002°36'0 0.1
2018-Apr-19 23:56N 53°32' E 002°36'0 0.0
2018-Apr-19 20:20N 53°32' E 002°36'0 0.1
2018-Apr-19 19:56N 53°32' E 002°36'0 0.0
2018-Apr-19 08:32N 53°32' E 002°36'0 0.0
2018-Apr-19 00:44N 53°32' E 002°36'0 0.0
2018-Apr-18 20:02N 53°32' E 002°36'0 0.1
2018-Apr-18 19:56N 53°32' E 002°36'0 0.1
2018-Apr-18 18:38N 53°32' E 002°36'0 0.0
2018-Apr-18 18:26N 53°32' E 002°36'0 0.4
2018-Apr-18 18:00N 53°32' E 002°36'4 8.1
2018-Apr-18 17:29N 53°29' E 002°41'9611.9
2018-Apr-18 09:24N 51°53' E 002°35'410.7
2018-Apr-18 09:00N 51°49' E 002°34'611.2
2018-Apr-18 08:30N 51°44' E 002°31'611.0
2018-Apr-18 08:00N 51°40' E 002°25'611.0
2018-Apr-18 07:29N 51°36' E 002°19'611.7
2018-Apr-18 06:57N 51°31' E 002°12'511.9
2018-Apr-18 06:30N 51°27' E 002°07'612.1
2018-Apr-18 06:00N 51°22' E 002°00'612.5
2018-Apr-18 05:30N 51°17' E 001°55'612.6
2018-Apr-18 05:00N 51°12' E 001°48'713.0
2018-Apr-18 04:30N 51°07' E 001°41'713.4
2018-Apr-18 04:00N 51°02' E 001°34'714.2
2018-Apr-18 03:30N 50°57' E 001°27'714.1
2018-Apr-18 02:59N 50°50' E 001°24'913.2
2018-Apr-18 02:19N 50°42' E 001°19'2512.7
2018-Apr-18 00:20N 50°29' E 000°45'1613.2
2018-Apr-17 23:07N 50°24' E 000°21'213.8
2018-Apr-17 23:00N 50°23' E 000°19'714.1
2018-Apr-17 22:30N 50°21' E 000°08'814.5
2018-Apr-17 21:58N 50°19' W 000°04'714.8
2018-Apr-17 21:30N 50°17' W 000°14'915.0
2018-Apr-17 20:55N 50°15' W 000°27'1015.0
2018-Apr-17 20:15N 50°12' W 000°42'2114.2
2018-Apr-17 18:48N 50°07' W 001°13'413.1
2018-Apr-17 18:30N 50°06' W 001°19'612.4
2018-Apr-17 18:00N 50°04' W 001°28'611.3
2018-Apr-17 17:30N 50°03' W 001°37'510.3
2018-Apr-17 17:00N 50°01' W 001°45'5 9.5
2018-Apr-17 16:30N 49°60' W 001°52'4 8.7
2018-Apr-17 16:00N 49°59' W 001°58'4 8.0
2018-Apr-17 15:30N 49°58' W 002°04'4 7.6
2018-Apr-17 15:00N 49°57' W 002°10'4 7.6
2018-Apr-17 14:29N 49°56' W 002°16'7 8.3
2018-Apr-17 13:39N 49°54' W 002°26'1 8.9
2018-Apr-17 13:30N 49°53' W 002°28'6 9.5
2018-Apr-17 12:53N 49°52' W 002°37'410.1
2018-Apr-17 12:29N 49°51' W 002°43'1610.8
2018-Apr-17 11:02N 49°44' W 003°05'011.1
2018-Apr-17 11:00N 49°44' W 003°05'611.4
2018-Apr-17 10:30N 49°41' W 003°13'10013.1
2018-Apr-17 02:53N 48°50' W 005°25'34 8.4
2018-Apr-16 22:53N 48°19' W 005°42'1110.6
2018-Apr-16 21:53N 48°09' W 005°36'1010.3
2018-Apr-16 20:53N 47°59' W 005°29'73 8.9
2018-Apr-16 12:44N 47°21' W 003°57'2 9.8
2018-Apr-16 12:31N 47°20' W 003°54'5 9.6
2018-Apr-16 12:00N 47°18' W 003°48'510.0
2018-Apr-16 11:31N 47°15' W 003°42'5 9.9
2018-Apr-16 10:59N 47°12' W 003°35'5 9.9
2018-Apr-16 10:31N 47°10' W 003°29'510.0
2018-Apr-16 10:00N 47°07' W 003°23'510.2
2018-Apr-16 09:30N 47°06' W 003°16'510.1
2018-Apr-16 09:00N 47°05' W 003°09'610.8
2018-Apr-16 08:28N 47°03' W 003°00'510.6
2018-Apr-16 07:59N 47°02' W 002°53'510.6
2018-Apr-16 07:30N 47°01' W 002°46'510.2
2018-Apr-16 07:00N 47°01' W 002°38'611.5
2018-Apr-16 06:31N 47°03' W 002°31'611.7
2018-Apr-16 06:01N 47°07' W 002°23'5 9.9
2018-Apr-16 05:31N 47°10' W 002°18'611.9
2018-Apr-16 05:01N 47°15' W 002°13'510.6
2018-Apr-16 04:31N 47°18' W 002°07'1 1.2
2018-Apr-16 04:00N 47°18' W 002°06'0 0.0
2018-Apr-16 03:30N 47°18' W 002°06'0 0.0
2018-Apr-16 02:54N 47°18' W 002°06'0 0.0
2018-Apr-16 02:30N 47°18' W 002°06'0 0.0
2018-Apr-16 02:00N 47°18' W 002°06'0 0.0
2018-Apr-16 01:27N 47°18' W 002°06'0 0.0
2018-Apr-16 01:00N 47°18' W 002°06'0 0.0
2018-Apr-16 00:30N 47°18' W 002°06'0 0.0
2018-Apr-16 00:00N 47°18' W 002°06'0 0.0
2018-Apr-15 23:30N 47°18' W 002°06'0 0.0
2018-Apr-15 23:00N 47°18' W 002°06'0 0.0
2018-Apr-15 22:30N 47°18' W 002°06'0 0.0
2018-Apr-15 22:00N 47°18' W 002°06'0 0.0
2018-Apr-15 21:30N 47°18' W 002°06'0 0.0
2018-Apr-15 21:00N 47°18' W 002°06'0 0.0
2018-Apr-15 20:30N 47°18' W 002°06'0 0.0
2018-Apr-15 20:00N 47°18' W 002°06'0 0.0
2018-Apr-15 19:30N 47°18' W 002°06'0 0.0
2018-Apr-15 19:00N 47°18' W 002°06'0 0.0
2018-Apr-15 18:27N 47°18' W 002°06'0 0.0
2018-Apr-15 18:00N 47°18' W 002°06'0 0.0
2018-Apr-15 17:27N 47°18' W 002°06'0 0.0
2018-Apr-15 16:57N 47°18' W 002°06'0 0.0
2018-Apr-15 16:27N 47°18' W 002°06'0 0.0
2018-Apr-15 16:00N 47°18' W 002°06'0 0.0
2018-Apr-15 15:30N 47°18' W 002°06'0 0.0
2018-Apr-15 15:00N 47°18' W 002°06'0 0.0
2018-Apr-15 14:30N 47°18' W 002°06'0 0.0
2018-Apr-15 14:00N 47°18' W 002°06'0 0.0
2018-Apr-15 13:30N 47°18' W 002°06'0 0.0
2018-Apr-15 13:00N 47°18' W 002°06'0 0.0
2018-Apr-15 12:30N 47°18' W 002°06'0 0.0
2018-Apr-15 12:00N 47°18' W 002°06'0 0.0
2018-Apr-15 11:30N 47°18' W 002°06'0 0.0
2018-Apr-15 10:57N 47°18' W 002°06'0 0.0
2018-Apr-15 10:30N 47°18' W 002°06'0 0.0
2018-Apr-15 10:00N 47°18' W 002°06'0 0.0
2018-Apr-15 09:30N 47°18' W 002°06'0 0.0
2018-Apr-15 09:00N 47°18' W 002°06'0 0.0
2018-Apr-15 08:27N 47°18' W 002°06'0 0.0
2018-Apr-15 08:00N 47°18' W 002°06'0 0.0
2018-Apr-15 07:27N 47°18' W 002°06'0 0.0
2018-Apr-15 07:00N 47°18' W 002°06'0 0.0
2018-Apr-15 06:21N 47°18' W 002°06'0 0.0
2018-Apr-15 06:00N 47°18' W 002°06'0 0.0
2018-Apr-15 05:30N 47°18' W 002°06'0 0.0
2018-Apr-15 05:00N 47°18' W 002°06'0 0.0
2018-Apr-15 04:30N 47°18' W 002°06'0 0.0
2018-Apr-15 04:00N 47°18' W 002°06'0 0.0
2018-Apr-15 03:30N 47°18' W 002°06'0 0.0
2018-Apr-15 02:57N 47°18' W 002°06'0 0.0
2018-Apr-15 02:30N 47°18' W 002°06'0 0.0
2018-Apr-15 02:00N 47°18' W 002°06'0 0.0
2018-Apr-15 01:27N 47°18' W 002°06'0 0.0
2018-Apr-15 01:00N 47°18' W 002°06'0 0.0
2018-Apr-15 00:27N 47°18' W 002°06'0 0.0
2018-Apr-14 23:57N 47°18' W 002°06'0 0.0
2018-Apr-14 23:30N 47°18' W 002°06'0 0.0
2018-Apr-14 23:00N 47°18' W 002°06'0 0.0
2018-Apr-14 22:30N 47°18' W 002°06'0 0.0
2018-Apr-14 22:00N 47°18' W 002°06'0 0.0
2018-Apr-14 21:30N 47°18' W 002°06'0 0.0
2018-Apr-14 21:00N 47°18' W 002°06'0 0.0
2018-Apr-14 20:30N 47°18' W 002°06'0 0.0
2018-Apr-14 20:00N 47°18' W 002°06'0 0.0
2018-Apr-14 19:30N 47°18' W 002°06'0 0.0
2018-Apr-14 19:00N 47°18' W 002°06'0 0.0
2018-Apr-14 18:27N 47°18' W 002°06'0 0.0
2018-Apr-14 17:54N 47°18' W 002°06'0 0.0
2018-Apr-14 17:27N 47°18' W 002°06'0 0.0
2018-Apr-14 17:00N 47°18' W 002°06'0 0.0
2018-Apr-14 16:30N 47°18' W 002°06'0 0.0
2018-Apr-14 16:00N 47°18' W 002°06'0 0.0
2018-Apr-14 15:30N 47°18' W 002°06'0 0.0
2018-Apr-14 15:00N 47°18' W 002°06'2 4.5
2018-Apr-14 14:30N 47°18' W 002°09'5 9.8
2018-Apr-14 14:00N 47°14' W 002°15'510.9
2018-Apr-14 13:30N 47°10' W 002°19'3 7.0
2018-Apr-14 13:00N 47°07' W 002°22'2 3.9
2018-Apr-14 12:30N 47°07' W 002°25'  
Track history (hours):
 
Tides and Currents Weather Stations Pressure Air Temp Water Temp Dewpoint Dewpoint Depression Visibility Wind Speed Wind Dir Waves Ship Positions

Cielo Di Capri

Last reported at 2018-Apr-24 12:00 UTC. Time now 2018-Apr-24 12:20 UTC.
Position N 53°38' W 000°10'.

Length 184 m; draft 11.9 m.

Type: Tanker. MMSI: 249435000.

Date/timePositionNaut miles runAvg speedWind from/ knotsBaromVisibWave heightAir tempDewpointWater temp
2018-Apr-24 12:00N 53°38' W 000°10'0 0.1
2018-Apr-24 11:30N 53°38' W 000°10'0 0.0
2018-Apr-24 08:45N 53°38' W 000°10'0 0.0
2018-Apr-24 08:30N 53°38' W 000°10'0 0.0
2018-Apr-24 08:00N 53°38' W 000°10'0 0.0
2018-Apr-24 06:42N 53°38' W 000°10'0 0.0
2018-Apr-23 20:48N 53°38' W 000°10'0 0.0
2018-Apr-23 19:42N 53°38' W 000°10'0 0.0
2018-Apr-23 19:27N 53°38' W 000°10'0 0.0
2018-Apr-23 19:00N 53°38' W 000°10'0 0.0
2018-Apr-23 18:30N 53°38' W 000°10'0 0.0
2018-Apr-23 17:48N 53°38' W 000°10'0 0.0
2018-Apr-23 17:30N 53°38' W 000°10'0 0.0
2018-Apr-23 17:00N 53°38' W 000°10'0 0.0
2018-Apr-23 16:27N 53°38' W 000°10'0 0.0
2018-Apr-23 16:00N 53°38' W 000°10'0 0.0
2018-Apr-23 15:27N 53°38' W 000°10'0 0.0
2018-Apr-23 15:00N 53°38' W 000°10'0 0.0
2018-Apr-23 14:30N 53°38' W 000°10'0 0.0
2018-Apr-23 14:00N 53°38' W 000°10'0 0.0
2018-Apr-23 13:30N 53°38' W 000°10'0 0.0
2018-Apr-23 08:51N 53°38' W 000°10'0 0.0
2018-Apr-23 07:30N 53°38' W 000°10'0 0.0
2018-Apr-23 07:00N 53°38' W 000°10'0 0.0
2018-Apr-23 06:27N 53°38' W 000°10'0 0.0
2018-Apr-23 06:00N 53°38' W 000°10'0 0.0
2018-Apr-23 05:21N 53°38' W 000°10'0 0.0
2018-Apr-23 03:39N 53°38' W 000°10'0 0.0
2018-Apr-23 03:27N 53°38' W 000°10'0 0.0
2018-Apr-22 23:27N 53°38' W 000°10'1 1.8
2018-Apr-22 23:00N 53°38' W 000°08'3 5.7
2018-Apr-22 22:30N 53°37' W 000°04'5 9.2
2018-Apr-22 22:00N 53°35' E 000°03'510.9
2018-Apr-22 21:30N 53°33' E 000°12'8 0.3
2018-Apr-21 21:52N 53°37' E 000°24'0 0.1
2018-Apr-21 21:19N 53°37' E 000°24'0 0.0
2018-Apr-21 20:58N 53°37' E 000°24'0 0.0
2018-Apr-21 20:28N 53°37' E 000°24'0 0.0
2018-Apr-21 19:58N 53°37' E 000°24'0 0.2
2018-Apr-21 19:30N 53°37' E 000°24'3 7.0
2018-Apr-21 19:00N 53°38' E 000°29'612.4
2018-Apr-21 18:30N 53°42' E 000°38'612.1
2018-Apr-21 18:00N 53°45' E 000°46'612.0
2018-Apr-21 17:30N 53°49' E 000°54'612.2
2018-Apr-21 17:00N 53°51' E 001°04'612.3
2018-Apr-21 16:30N 53°54' E 001°13'612.2
2018-Apr-21 16:01N 53°56' E 001°23'712.2
2018-Apr-21 15:29N 53°59' E 001°33'612.0
2018-Apr-21 15:00N 54°00' E 001°42'612.7
2018-Apr-21 14:30N 53°60' E 001°53'612.3
2018-Apr-21 14:00N 53°60' E 002°03'2510.6
2018-Apr-21 11:41N 53°38' E 002°25'210.9
2018-Apr-21 11:28N 53°37' E 002°28'510.8
2018-Apr-21 11:00N 53°33' E 002°34'2 1.3
2018-Apr-21 09:50N 53°32' E 002°36'0 0.0
2018-Apr-21 09:29N 53°32' E 002°36'0 0.0
2018-Apr-21 03:38N 53°32' E 002°36'0 0.0
2018-Apr-20 21:44N 53°32' E 002°36'0 0.0
2018-Apr-20 18:14N 53°32' E 002°36'0 0.0
2018-Apr-20 17:56N 53°32' E 002°36'0 0.0
2018-Apr-20 17:26N 53°32' E 002°36'0 0.0
2018-Apr-20 16:50N 53°32' E 002°36'0 0.0
2018-Apr-20 16:17N 53°32' E 002°36'0 0.1
2018-Apr-20 15:56N 53°32' E 002°36'0 0.0
2018-Apr-20 00:14N 53°32' E 002°36'0 0.1
2018-Apr-19 23:56N 53°32' E 002°36'0 0.0
2018-Apr-19 20:20N 53°32' E 002°36'0 0.1
2018-Apr-19 19:56N 53°32' E 002°36'0 0.0
2018-Apr-19 08:32N 53°32' E 002°36'0 0.0
2018-Apr-19 00:44N 53°32' E 002°36'0 0.0
2018-Apr-18 20:02N 53°32' E 002°36'0 0.1
2018-Apr-18 19:56N 53°32' E 002°36'0 0.1
2018-Apr-18 18:38N 53°32' E 002°36'0 0.0
2018-Apr-18 18:26N 53°32' E 002°36'0 0.4
2018-Apr-18 18:00N 53°32' E 002°36'4 8.1
2018-Apr-18 17:29N 53°29' E 002°41'9611.9
2018-Apr-18 09:24N 51°53' E 002°35'410.7
2018-Apr-18 09:00N 51°49' E 002°34'611.2
2018-Apr-18 08:30N 51°44' E 002°31'611.0
2018-Apr-18 08:00N 51°40' E 002°25'611.0
2018-Apr-18 07:29N 51°36' E 002°19'611.7
2018-Apr-18 06:57N 51°31' E 002°12'511.9
2018-Apr-18 06:30N 51°27' E 002°07'612.1
2018-Apr-18 06:00N 51°22' E 002°00'612.5
2018-Apr-18 05:30N 51°17' E 001°55'612.6
2018-Apr-18 05:00N 51°12' E 001°48'713.0
2018-Apr-18 04:30N 51°07' E 001°41'713.4
2018-Apr-18 04:00N 51°02' E 001°34'714.2
2018-Apr-18 03:30N 50°57' E 001°27'714.1
2018-Apr-18 02:59N 50°50' E 001°24'913.2
2018-Apr-18 02:19N 50°42' E 001°19'2512.7
2018-Apr-18 00:20N 50°29' E 000°45'1613.2
2018-Apr-17 23:07N 50°24' E 000°21'213.8
2018-Apr-17 23:00N 50°23' E 000°19'714.1
2018-Apr-17 22:30N 50°21' E 000°08'814.5
2018-Apr-17 21:58N 50°19' W 000°04'714.8
2018-Apr-17 21:30N 50°17' W 000°14'915.0
2018-Apr-17 20:55N 50°15' W 000°27'1015.0
2018-Apr-17 20:15N 50°12' W 000°42'2114.2
2018-Apr-17 18:48N 50°07' W 001°13'413.1
2018-Apr-17 18:30N 50°06' W 001°19'612.4
2018-Apr-17 18:00N 50°04' W 001°28'611.3
2018-Apr-17 17:30N 50°03' W 001°37'510.3
2018-Apr-17 17:00N 50°01' W 001°45'5 9.5
2018-Apr-17 16:30N 49°60' W 001°52'4 8.7
2018-Apr-17 16:00N 49°59' W 001°58'4 8.0
2018-Apr-17 15:30N 49°58' W 002°04'4 7.6
2018-Apr-17 15:00N 49°57' W 002°10'4 7.6
2018-Apr-17 14:29N 49°56' W 002°16'7 8.3
2018-Apr-17 13:39N 49°54' W 002°26'1 8.9
2018-Apr-17 13:30N 49°53' W 002°28'6 9.5
2018-Apr-17 12:53N 49°52' W 002°37'410.1
2018-Apr-17 12:29N 49°51' W 002°43'1610.8
2018-Apr-17 11:02N 49°44' W 003°05'011.1
2018-Apr-17 11:00N 49°44' W 003°05'611.4
2018-Apr-17 10:30N 49°41' W 003°13'10013.1
2018-Apr-17 02:53N 48°50' W 005°25'34 8.4
2018-Apr-16 22:53N 48°19' W 005°42'1110.6
2018-Apr-16 21:53N 48°09' W 005°36'1010.3
2018-Apr-16 20:53N 47°59' W 005°29'73 8.9
2018-Apr-16 12:44N 47°21' W 003°57'2 9.8
2018-Apr-16 12:31N 47°20' W 003°54'5 9.6
2018-Apr-16 12:00N 47°18' W 003°48'510.0
2018-Apr-16 11:31N 47°15' W 003°42'5 9.9
2018-Apr-16 10:59N 47°12' W 003°35'5 9.9
2018-Apr-16 10:31N 47°10' W 003°29'510.0
2018-Apr-16 10:00N 47°07' W 003°23'510.2
2018-Apr-16 09:30N 47°06' W 003°16'510.1
2018-Apr-16 09:00N 47°05' W 003°09'610.8
2018-Apr-16 08:28N 47°03' W 003°00'510.6
2018-Apr-16 07:59N 47°02' W 002°53'510.6
2018-Apr-16 07:30N 47°01' W 002°46'510.2
2018-Apr-16 07:00N 47°01' W 002°38'611.5
2018-Apr-16 06:31N 47°03' W 002°31'611.7
2018-Apr-16 06:01N 47°07' W 002°23'5 9.9
2018-Apr-16 05:31N 47°10' W 002°18'611.9
2018-Apr-16 05:01N 47°15' W 002°13'510.6
2018-Apr-16 04:31N 47°18' W 002°07'1 1.2
2018-Apr-16 04:00N 47°18' W 002°06'0 0.0
2018-Apr-16 03:30N 47°18' W 002°06'0 0.0
2018-Apr-16 02:54N 47°18' W 002°06'0 0.0
2018-Apr-16 02:30N 47°18' W 002°06'0 0.0
2018-Apr-16 02:00N 47°18' W 002°06'0 0.0
2018-Apr-16 01:27N 47°18' W 002°06'0 0.0
2018-Apr-16 01:00N 47°18' W 002°06'0 0.0
2018-Apr-16 00:30N 47°18' W 002°06'0 0.0
2018-Apr-16 00:00N 47°18' W 002°06'0 0.0
2018-Apr-15 23:30N 47°18' W 002°06'0 0.0
2018-Apr-15 23:00N 47°18' W 002°06'0 0.0
2018-Apr-15 22:30N 47°18' W 002°06'0 0.0
2018-Apr-15 22:00N 47°18' W 002°06'0 0.0
2018-Apr-15 21:30N 47°18' W 002°06'0 0.0
2018-Apr-15 21:00N 47°18' W 002°06'0 0.0
2018-Apr-15 20:30N 47°18' W 002°06'0 0.0
2018-Apr-15 20:00N 47°18' W 002°06'0 0.0
2018-Apr-15 19:30N 47°18' W 002°06'0 0.0
2018-Apr-15 19:00N 47°18' W 002°06'0 0.0
2018-Apr-15 18:27N 47°18' W 002°06'0 0.0
2018-Apr-15 18:00N 47°18' W 002°06'0 0.0
2018-Apr-15 17:27N 47°18' W 002°06'0 0.0
2018-Apr-15 16:57N 47°18' W 002°06'0 0.0
2018-Apr-15 16:27N 47°18' W 002°06'0 0.0
2018-Apr-15 16:00N 47°18' W 002°06'0 0.0
2018-Apr-15 15:30N 47°18' W 002°06'0 0.0
2018-Apr-15 15:00N 47°18' W 002°06'0 0.0
2018-Apr-15 14:30N 47°18' W 002°06'0 0.0
2018-Apr-15 14:00N 47°18' W 002°06'0 0.0
2018-Apr-15 13:30N 47°18' W 002°06'0 0.0
2018-Apr-15 13:00N 47°18' W 002°06'0 0.0
2018-Apr-15 12:30N 47°18' W 002°06'0 0.0
2018-Apr-15 12:00N 47°18' W 002°06'0 0.0
2018-Apr-15 11:30N 47°18' W 002°06'0 0.0
2018-Apr-15 10:57N 47°18' W 002°06'0 0.0
2018-Apr-15 10:30N 47°18' W 002°06'0 0.0
2018-Apr-15 10:00N 47°18' W 002°06'0 0.0
2018-Apr-15 09:30N 47°18' W 002°06'0 0.0
2018-Apr-15 09:00N 47°18' W 002°06'0 0.0
2018-Apr-15 08:27N 47°18' W 002°06'0 0.0
2018-Apr-15 08:00N 47°18' W 002°06'0 0.0
2018-Apr-15 07:27N 47°18' W 002°06'0 0.0
2018-Apr-15 07:00N 47°18' W 002°06'0 0.0
2018-Apr-15 06:21N 47°18' W 002°06'0 0.0
2018-Apr-15 06:00N 47°18' W 002°06'0 0.0
2018-Apr-15 05:30N 47°18' W 002°06'0 0.0
2018-Apr-15 05:00N 47°18' W 002°06'0 0.0
2018-Apr-15 04:30N 47°18' W 002°06'0 0.0
2018-Apr-15 04:00N 47°18' W 002°06'0 0.0
2018-Apr-15 03:30N 47°18' W 002°06'0 0.0
2018-Apr-15 02:57N 47°18' W 002°06'0 0.0
2018-Apr-15 02:30N 47°18' W 002°06'0 0.0
2018-Apr-15 02:00N 47°18' W 002°06'0 0.0
2018-Apr-15 01:27N 47°18' W 002°06'0 0.0
2018-Apr-15 01:00N 47°18' W 002°06'0 0.0
2018-Apr-15 00:27N 47°18' W 002°06'0 0.0
2018-Apr-14 23:57N 47°18' W 002°06'0 0.0
2018-Apr-14 23:30N 47°18' W 002°06'0 0.0
2018-Apr-14 23:00N 47°18' W 002°06'0 0.0
2018-Apr-14 22:30N 47°18' W 002°06'0 0.0
2018-Apr-14 22:00N 47°18' W 002°06'0 0.0
2018-Apr-14 21:30N 47°18' W 002°06'0 0.0
2018-Apr-14 21:00N 47°18' W 002°06'0 0.0
2018-Apr-14 20:30N 47°18' W 002°06'0 0.0
2018-Apr-14 20:00N 47°18' W 002°06'0 0.0
2018-Apr-14 19:30N 47°18' W 002°06'0 0.0
2018-Apr-14 19:00N 47°18' W 002°06'0 0.0
2018-Apr-14 18:27N 47°18' W 002°06'0 0.0
2018-Apr-14 17:54N 47°18' W 002°06'0 0.0
2018-Apr-14 17:27N 47°18' W 002°06'0 0.0
2018-Apr-14 17:00N 47°18' W 002°06'0 0.0
2018-Apr-14 16:30N 47°18' W 002°06'0 0.0
2018-Apr-14 16:00N 47°18' W 002°06'0 0.0
2018-Apr-14 15:30N 47°18' W 002°06'0 0.0
2018-Apr-14 15:00N 47°18' W 002°06'2 4.5
2018-Apr-14 14:30N 47°18' W 002°09'5 9.8
2018-Apr-14 14:00N 47°14' W 002°15'510.9
2018-Apr-14 13:30N 47°10' W 002°19'3 7.0
2018-Apr-14 13:00N 47°07' W 002°22'2 3.9
2018-Apr-14 12:30N 47°07' W 002°25'  

Dump ship's entire track history